createdAt,value
2018-06-13T00:01:31.633Z,4.20
2018-06-13T00:03:36.536Z,4.37
2018-06-13T00:05:41.434Z,4.47
2018-06-13T00:07:46.375Z,4.20
2018-06-13T00:09:51.213Z,4.27
2018-06-13T00:11:56.026Z,4.10
2018-06-13T00:14:01.425Z,4.90
2018-06-13T00:16:06.493Z,4.13
2018-06-13T00:18:11.439Z,3.90
2018-06-13T00:20:16.265Z,4.67
2018-06-13T00:22:21.252Z,4.40
2018-06-13T00:24:26.288Z,3.90
2018-06-13T00:26:31.079Z,4.27
2018-06-13T00:28:35.926Z,4.50
2018-06-13T00:30:40.746Z,4.63
2018-06-13T00:32:45.688Z,3.90
2018-06-13T00:34:50.695Z,4.73
2018-06-13T00:36:55.758Z,4.50
2018-06-13T00:39:00.658Z,4.20
2018-06-13T00:41:05.674Z,5.07
2018-06-13T00:43:10.389Z,3.73
2018-06-13T00:45:15.249Z,3.33
2018-06-13T00:47:20.119Z,4.23
2018-06-13T00:49:24.844Z,4.17
2018-06-13T00:51:29.604Z,3.50
2018-06-13T00:53:34.396Z,4.37
2018-06-13T00:55:55.553Z,3.73
2018-06-13T00:58:00.478Z,3.97
2018-06-13T01:00:05.977Z,4.07
2018-06-13T01:02:11.042Z,3.97
2018-06-13T01:04:15.795Z,3.50
2018-06-13T01:06:20.530Z,3.43
2018-06-13T01:08:25.349Z,3.50
2018-06-13T01:10:30.132Z,3.37
2018-06-13T01:12:34.993Z,3.50
2018-06-13T01:14:39.958Z,3.07
2018-06-13T01:16:44.961Z,3.20
2018-06-13T01:18:49.686Z,3.43
2018-06-13T01:20:54.605Z,3.17
2018-06-13T01:22:59.595Z,2.50
2018-06-13T01:25:04.445Z,3.17
2018-06-13T01:27:09.329Z,2.90
2018-06-13T01:29:14.073Z,2.60
2018-06-13T01:31:18.988Z,2.77
2018-06-13T01:33:23.955Z,2.80
2018-06-13T01:35:28.911Z,2.80
2018-06-13T01:37:33.787Z,2.83
2018-06-13T01:39:38.770Z,2.63
2018-06-13T01:41:43.563Z,3.20
2018-06-13T01:43:48.316Z,3.70
2018-06-13T01:45:53.222Z,3.13
2018-06-13T01:47:58.150Z,3.20
2018-06-13T01:50:03.044Z,3.33
2018-06-13T01:52:08.782Z,2.53
2018-06-13T01:54:13.493Z,2.40
2018-06-13T01:56:18.283Z,3.00
2018-06-13T01:58:23.044Z,2.90
2018-06-13T02:00:27.848Z,3.87
2018-06-13T02:02:32.589Z,2.40
2018-06-13T02:04:37.346Z,2.60
2018-06-13T02:06:42.142Z,2.73
2018-06-13T02:08:47.133Z,2.87
2018-06-13T02:10:51.825Z,4.20
2018-06-13T02:12:56.666Z,2.60
2018-06-13T02:15:01.350Z,2.60
2018-06-13T02:17:06.142Z,2.80
2018-06-13T02:19:10.913Z,2.53
2018-06-13T02:21:16.887Z,2.43
2018-06-13T02:23:21.679Z,2.70
2018-06-13T02:25:26.446Z,2.63
2018-06-13T02:27:31.428Z,3.07
2018-06-13T02:29:36.079Z,3.17
2018-06-13T02:31:40.855Z,2.80
2018-06-13T02:33:45.655Z,1.70
2018-06-13T02:35:50.550Z,2.50
2018-06-13T02:37:55.339Z,2.93
2018-06-13T02:40:00.097Z,3.03
2018-06-13T02:42:04.912Z,2.50
2018-06-13T02:44:09.645Z,2.70
2018-06-13T02:46:14.359Z,2.80
2018-06-13T02:48:19.038Z,3.00
2018-06-13T02:50:23.804Z,3.33
2018-06-13T02:52:28.703Z,3.60
2018-06-13T02:54:33.527Z,3.40
2018-06-13T02:56:38.240Z,3.20
2018-06-13T02:58:43.090Z,3.00
2018-06-13T03:00:48.504Z,2.80
2018-06-13T03:02:53.467Z,3.10
2018-06-13T03:04:58.228Z,3.07
2018-06-13T03:07:03.133Z,2.73
2018-06-13T03:09:09.582Z,3.07
2018-06-13T03:11:14.568Z,3.40
2018-06-13T03:13:19.427Z,2.50
2018-06-13T03:15:24.351Z,2.90
2018-06-13T03:17:29.256Z,2.97
2018-06-13T03:19:34.002Z,2.47
2018-06-13T03:21:38.844Z,2.80
2018-06-13T03:23:43.673Z,3.10
2018-06-13T03:25:48.358Z,3.23
2018-06-13T03:27:53.068Z,3.27
2018-06-13T03:29:57.775Z,2.70
2018-06-13T03:32:02.441Z,3.63
2018-06-13T03:34:07.149Z,2.83
2018-06-13T03:36:11.954Z,2.93
2018-06-13T03:38:16.763Z,3.37
2018-06-13T03:40:21.462Z,3.10
2018-06-13T03:42:26.370Z,3.60
2018-06-13T03:44:31.055Z,2.87
2018-06-13T03:46:35.918Z,3.20
2018-06-13T03:48:40.785Z,3.63
2018-06-13T03:50:45.543Z,3.00
2018-06-13T03:52:50.256Z,3.20
2018-06-13T03:54:55.125Z,3.30
2018-06-13T03:57:00.022Z,2.43
2018-06-13T03:59:04.969Z,3.40
2018-06-13T04:01:09.906Z,2.73
2018-06-13T04:03:15.085Z,2.93
2018-06-13T04:05:19.754Z,3.07
2018-06-13T04:07:24.516Z,3.20
2018-06-13T04:09:29.408Z,2.93
2018-06-13T04:11:34.254Z,2.97
2018-06-13T04:13:39.168Z,2.83
2018-06-13T04:15:44.122Z,2.90
2018-06-13T04:17:49.122Z,3.67
2018-06-13T04:19:54.108Z,3.33
2018-06-13T04:21:59.053Z,3.27
2018-06-13T04:24:03.901Z,2.57
2018-06-13T04:26:08.985Z,2.70
2018-06-13T04:28:13.740Z,3.10
2018-06-13T04:30:18.463Z,2.40
2018-06-13T04:32:23.148Z,2.90
2018-06-13T04:34:27.838Z,3.30
2018-06-13T04:36:32.494Z,3.07
2018-06-13T04:38:37.285Z,2.70
2018-06-13T04:40:41.956Z,3.20
2018-06-13T04:42:46.802Z,2.80
2018-06-13T04:44:51.463Z,2.90
2018-06-13T04:46:56.326Z,3.30
2018-06-13T04:49:01.063Z,3.50
2018-06-13T04:51:05.851Z,2.93
2018-06-13T04:53:10.653Z,3.17
2018-06-13T04:55:15.359Z,2.90
2018-06-13T04:57:20.073Z,3.07
2018-06-13T04:59:24.981Z,2.93
2018-06-13T05:01:29.887Z,2.67
2018-06-13T05:03:34.751Z,2.93
2018-06-13T05:05:39.642Z,3.70
2018-06-13T05:07:44.437Z,2.87
2018-06-13T05:09:49.497Z,2.43
2018-06-13T05:11:54.669Z,3.10
2018-06-13T05:13:59.508Z,4.00
2018-06-13T05:16:04.335Z,3.17
2018-06-13T05:18:09.332Z,2.80
2018-06-13T05:20:14.073Z,2.53
2018-06-13T05:22:18.838Z,2.93
2018-06-13T05:24:23.566Z,2.67
2018-06-13T05:26:28.600Z,4.77
2018-06-13T05:28:33.505Z,4.70
2018-06-13T05:30:38.297Z,4.77
2018-06-13T05:32:43.139Z,3.57
2018-06-13T05:34:47.932Z,4.77
2018-06-13T05:36:52.664Z,3.73
2018-06-13T05:38:57.583Z,5.00
2018-06-13T05:41:02.545Z,3.93
2018-06-13T05:43:07.748Z,3.73
2018-06-13T05:45:12.655Z,4.13
2018-06-13T05:47:17.635Z,3.20
2018-06-13T05:49:22.501Z,3.70
2018-06-13T05:51:27.384Z,2.90
2018-06-13T05:53:32.350Z,2.70
2018-06-13T05:55:37.359Z,2.70
2018-06-13T05:57:42.229Z,3.17
2018-06-13T05:59:47.216Z,3.17
2018-06-13T06:01:51.946Z,2.60
2018-06-13T06:03:56.876Z,3.20
2018-06-13T06:06:01.571Z,2.93
2018-06-13T06:08:06.563Z,3.73
2018-06-13T06:10:11.497Z,2.60
2018-06-13T06:12:16.198Z,3.03
2018-06-13T06:14:20.884Z,2.73
2018-06-13T06:16:25.617Z,3.20
2018-06-13T06:18:30.725Z,3.80
2018-06-13T06:20:35.434Z,3.57
2018-06-13T06:22:40.189Z,4.30
2018-06-13T06:24:45.036Z,3.40
2018-06-13T06:26:49.758Z,3.13
2018-06-13T06:28:54.387Z,4.00
2018-06-13T06:30:59.275Z,2.33
2018-06-13T06:33:04.224Z,3.23
2018-06-13T06:35:09.151Z,3.00
2018-06-13T06:37:13.966Z,3.77
2018-06-13T06:39:18.659Z,3.70
2018-06-13T06:41:23.443Z,3.70
2018-06-13T06:43:28.249Z,3.43
2018-06-13T06:45:32.990Z,4.30
2018-06-13T06:47:37.775Z,3.97
2018-06-13T06:49:42.660Z,3.40
2018-06-13T06:51:47.556Z,4.30
2018-06-13T06:53:52.535Z,3.50
2018-06-13T06:55:57.600Z,3.67
2018-06-13T06:58:02.562Z,2.93
2018-06-13T07:00:07.622Z,2.60
2018-06-13T07:02:12.589Z,3.03
2018-06-13T07:04:27.721Z,2.30
2018-06-13T07:06:32.677Z,2.23
2018-06-13T07:08:37.711Z,2.60
2018-06-13T07:10:42.476Z,3.33
2018-06-13T07:12:47.274Z,3.20
2018-06-13T07:14:51.904Z,3.20
2018-06-13T07:16:56.789Z,3.50
2018-06-13T07:19:01.841Z,4.10
2018-06-13T07:21:06.708Z,3.93
2018-06-13T07:23:11.368Z,3.40
2018-06-13T07:25:16.124Z,3.10
2018-06-13T07:27:20.936Z,2.50
2018-06-13T07:29:25.824Z,3.13
2018-06-13T07:31:30.571Z,2.10
2018-06-13T07:33:35.442Z,1.93
2018-06-13T07:35:40.277Z,2.30
2018-06-13T07:37:45.193Z,2.20
2018-06-13T07:39:50.098Z,1.90
2018-06-13T07:41:54.881Z,1.60
2018-06-13T07:43:59.703Z,1.33
2018-06-13T07:46:04.501Z,1.57
2018-06-13T07:48:09.478Z,2.10
2018-06-13T07:50:14.249Z,2.40
2018-06-13T07:52:19.016Z,1.63
2018-06-13T07:54:23.772Z,1.77
2018-06-13T07:56:28.810Z,1.30
2018-06-13T07:58:33.633Z,2.03
2018-06-13T08:00:38.472Z,1.60
2018-06-13T08:02:43.428Z,1.70
2018-06-13T08:04:49.413Z,2.03
2018-06-13T08:06:54.334Z,1.80
2018-06-13T08:08:59.292Z,1.63
2018-06-13T08:11:04.235Z,2.10
2018-06-13T08:13:09.061Z,2.20
2018-06-13T08:15:13.998Z,1.80
2018-06-13T08:17:19.489Z,2.40
2018-06-13T08:19:24.585Z,1.57
2018-06-13T08:21:29.690Z,1.97
2018-06-13T08:23:34.743Z,1.97
2018-06-13T08:25:39.694Z,3.27
2018-06-13T08:27:51.439Z,1.77
2018-06-13T08:29:56.333Z,2.00
2018-06-13T08:32:01.333Z,2.10
2018-06-13T08:34:06.249Z,2.33
2018-06-13T08:36:11.233Z,1.83
2018-06-13T08:38:16.188Z,1.97
2018-06-13T08:40:21.016Z,1.73
2018-06-13T08:42:26.008Z,2.00
2018-06-13T08:44:31.137Z,1.93
2018-06-13T08:46:35.955Z,1.17
2018-06-13T08:48:40.924Z,1.60
2018-06-13T08:50:45.844Z,2.00
2018-06-13T08:52:50.780Z,1.90
2018-06-13T08:54:55.899Z,2.77
2018-06-13T08:57:00.730Z,1.60
2018-06-13T08:59:05.582Z,2.50
2018-06-13T09:01:10.809Z,2.20
2018-06-13T09:03:15.787Z,2.23
2018-06-13T09:05:20.651Z,2.27
2018-06-13T09:07:25.654Z,1.50
2018-06-13T09:09:30.664Z,2.10
2018-06-13T09:11:36.126Z,1.67
2018-06-13T09:13:41.246Z,2.07
2018-06-13T09:15:46.182Z,2.00
2018-06-13T09:17:51.210Z,2.10
2018-06-13T09:19:56.172Z,2.00
2018-06-13T09:22:01.056Z,2.17
2018-06-13T09:24:06.265Z,1.73
2018-06-13T09:26:11.329Z,2.07
2018-06-13T09:28:16.290Z,1.53
2018-06-13T09:30:21.249Z,1.90
2018-06-13T09:32:26.312Z,2.10
2018-06-13T09:34:31.366Z,1.20
2018-06-13T09:36:36.361Z,2.40
2018-06-13T09:38:41.239Z,1.60
2018-06-13T09:40:46.223Z,1.67
2018-06-13T09:42:51.981Z,1.57
2018-06-13T09:44:57.048Z,1.20
2018-06-13T09:47:06.905Z,1.20
2018-06-13T09:49:06.905Z,1.70
2018-06-13T09:51:11.826Z,1.67
2018-06-13T09:53:16.936Z,1.77
2018-06-13T09:55:21.929Z,1.50
2018-06-13T09:57:26.828Z,1.60
2018-06-13T09:59:35.949Z,1.60
2018-06-13T10:01:46.135Z,1.93
2018-06-13T10:03:50.938Z,1.33
2018-06-13T10:05:55.985Z,1.53
2018-06-13T10:10:17.611Z,1.63
2018-06-13T10:12:22.830Z,1.93
2018-06-13T10:14:27.942Z,1.70
2018-06-13T10:16:33.056Z,1.23
2018-06-13T10:18:38.825Z,1.03
2018-06-13T10:20:44.033Z,1.60
2018-06-13T10:22:49.476Z,1.47
2018-06-13T10:24:54.595Z,1.73
2018-06-13T10:26:59.772Z,1.40
2018-06-13T10:29:04.990Z,1.57
2018-06-13T10:31:10.049Z,1.60
2018-06-13T10:33:15.210Z,1.60
2018-06-13T10:35:20.111Z,1.67
2018-06-13T10:37:25.018Z,1.30
2018-06-13T10:39:30.019Z,1.53
2018-06-13T10:41:35.131Z,1.23
2018-06-13T10:43:40.135Z,1.83
2018-06-13T10:45:44.967Z,1.30
2018-06-13T10:47:49.806Z,1.33
2018-06-13T10:49:54.766Z,1.37
2018-06-13T10:51:59.811Z,1.20
2018-06-13T10:54:04.990Z,1.17
2018-06-13T10:56:10.624Z,1.10
2018-06-13T10:58:16.516Z,1.23
2018-06-13T11:00:21.402Z,1.20
2018-06-13T11:02:26.230Z,1.10
2018-06-13T11:04:31.137Z,0.97
2018-06-13T11:06:36.425Z,1.27
2018-06-13T11:08:41.307Z,1.57
2018-06-13T11:10:46.138Z,1.57
2018-06-13T11:12:50.945Z,1.90
2018-06-13T11:14:55.700Z,1.27
2018-06-13T11:17:00.491Z,1.43
2018-06-13T11:19:05.260Z,1.50
2018-06-13T11:21:10.227Z,1.47
2018-06-13T11:23:14.976Z,1.40
2018-06-13T11:25:19.774Z,1.30
2018-06-13T11:27:25.610Z,1.20
2018-06-13T11:29:30.522Z,1.07
2018-06-13T11:31:35.688Z,1.00
2018-06-13T11:33:40.598Z,1.40
2018-06-13T11:35:45.898Z,1.13
2018-06-13T11:37:50.734Z,1.53
2018-06-13T11:39:57.285Z,1.20
2018-06-13T11:42:02.465Z,1.50
2018-06-13T11:44:07.502Z,1.00
2018-06-13T11:46:12.624Z,1.30
2018-06-13T11:48:17.892Z,0.80
2018-06-13T11:50:22.969Z,1.07
2018-06-13T11:52:28.135Z,1.43
2018-06-13T11:54:33.485Z,1.30
2018-06-13T11:56:38.610Z,1.60
2018-06-13T11:58:43.651Z,1.33
2018-06-13T12:00:48.566Z,1.20
2018-06-13T12:02:53.612Z,1.30
2018-06-13T12:04:58.742Z,1.53
2018-06-13T12:07:03.673Z,1.10
2018-06-13T12:09:08.955Z,1.70
2018-06-13T12:11:13.919Z,1.30
2018-06-13T12:13:18.789Z,1.10
2018-06-13T12:15:23.878Z,1.63
2018-06-13T12:17:29.142Z,0.87
2018-06-13T12:19:34.040Z,1.40
2018-06-13T12:21:39.189Z,1.40
2018-06-13T12:23:44.081Z,1.90
2018-06-13T12:25:48.948Z,1.00
2018-06-13T12:27:54.497Z,0.93
2018-06-13T12:29:59.391Z,1.10
2018-06-13T12:32:04.386Z,1.43
2018-06-13T12:34:09.383Z,1.10
2018-06-13T12:36:14.287Z,1.53
2018-06-13T12:38:19.243Z,1.27
2018-06-13T12:40:24.172Z,1.40
2018-06-13T12:42:29.137Z,1.57
2018-06-13T12:44:33.889Z,1.60
2018-06-13T12:46:39.167Z,1.50
2018-06-13T12:48:44.158Z,1.47
2018-06-13T12:50:49.054Z,1.87
2018-06-13T12:52:54.223Z,2.13
2018-06-13T12:54:59.308Z,1.20
2018-06-13T12:57:04.142Z,1.90
2018-06-13T12:59:08.955Z,1.60
2018-06-13T13:01:14.436Z,1.57
2018-06-13T13:03:19.388Z,1.47
2018-06-13T13:05:24.298Z,1.33
2018-06-13T13:07:29.293Z,1.53
2018-06-13T13:09:34.253Z,1.90
2018-06-13T13:11:39.382Z,1.80
2018-06-13T13:13:44.146Z,1.33
2018-06-13T13:15:48.893Z,1.93
2018-06-13T13:17:53.864Z,1.70
2018-06-13T13:19:58.791Z,1.73
2018-06-13T13:22:03.899Z,1.33
2018-06-13T13:24:08.863Z,1.60
2018-06-13T13:26:13.866Z,1.60
2018-06-13T13:28:18.732Z,1.60
2018-06-13T13:30:23.736Z,1.30
2018-06-13T13:32:28.865Z,1.10
2018-06-13T13:34:33.795Z,1.07
2018-06-13T13:36:38.794Z,1.10
2018-06-13T13:38:43.910Z,1.03
2018-06-13T13:40:49.205Z,1.07
2018-06-13T13:42:54.558Z,1.40
2018-06-13T13:44:59.603Z,1.30
2018-06-13T13:47:04.620Z,1.80
2018-06-13T13:49:09.666Z,1.50
2018-06-13T13:51:14.742Z,1.80
2018-06-13T13:53:19.701Z,1.33
2018-06-13T13:55:24.676Z,0.93
2018-06-13T13:57:29.508Z,1.20
2018-06-13T13:59:34.552Z,1.50
2018-06-13T14:01:39.883Z,1.30
2018-06-13T14:03:45.110Z,1.27
2018-06-13T14:05:50.193Z,1.60
2018-06-13T14:07:55.475Z,0.93
2018-06-13T14:10:02.909Z,1.80
2018-06-13T14:12:15.900Z,1.20
2018-06-13T14:14:22.228Z,1.73
2018-06-13T14:16:30.601Z,1.07
2018-06-13T14:18:35.543Z,1.20
2018-06-13T14:20:40.755Z,1.47
2018-06-13T14:22:45.856Z,1.73
2018-06-13T14:24:50.911Z,1.33
2018-06-13T14:26:55.776Z,1.90
2018-06-13T14:29:00.764Z,1.47
2018-06-13T14:31:05.682Z,1.23
2018-06-13T14:33:10.564Z,1.77
2018-06-13T14:35:15.413Z,1.77
2018-06-13T14:37:20.331Z,1.53
2018-06-13T14:39:25.219Z,1.40
2018-06-13T14:41:30.258Z,2.10
2018-06-13T14:43:34.924Z,1.27
2018-06-13T14:45:39.839Z,1.03
2018-06-13T14:47:44.751Z,1.37
2018-06-13T14:49:49.645Z,1.37
2018-06-13T14:51:55.793Z,1.13
2018-06-13T14:54:00.929Z,1.17
2018-06-13T14:56:10.962Z,1.37
2018-06-13T14:58:16.200Z,1.50
2018-06-13T15:00:21.221Z,1.00
2018-06-13T15:02:26.105Z,1.27
2018-06-13T15:04:33.896Z,1.10
2018-06-13T15:06:38.944Z,1.53
2018-06-13T15:08:44.008Z,1.40
2018-06-13T15:10:49.211Z,1.40
2018-06-13T15:12:54.352Z,1.30
2018-06-13T15:14:59.300Z,1.60
2018-06-13T15:17:04.699Z,1.53
2018-06-13T15:19:09.410Z,1.07
2018-06-13T15:21:14.301Z,1.43
2018-06-13T15:23:19.139Z,1.60
2018-06-13T15:25:24.158Z,1.50
2018-06-13T15:27:29.260Z,1.00
2018-06-13T15:29:34.245Z,1.23
2018-06-13T15:31:39.285Z,1.03
2018-06-13T15:33:44.107Z,1.10
2018-06-13T15:35:49.189Z,1.50
2018-06-13T15:37:54.153Z,1.13
2018-06-13T15:39:59.240Z,1.30
2018-06-13T15:42:04.269Z,1.40
2018-06-13T15:44:09.262Z,1.30
2018-06-13T15:46:14.238Z,1.27
2018-06-13T15:48:19.165Z,1.30
2018-06-13T15:50:24.180Z,1.17
2018-06-13T15:52:29.147Z,1.37
2018-06-13T15:54:34.069Z,1.70
2018-06-13T15:56:39.071Z,1.30
2018-06-13T15:58:44.185Z,1.07
2018-06-13T16:00:49.071Z,1.33
2018-06-13T16:02:54.064Z,1.30
2018-06-13T16:04:59.112Z,1.20
2018-06-13T16:07:04.105Z,1.47
2018-06-13T16:09:11.221Z,1.10
2018-06-13T16:11:16.034Z,1.00
2018-06-13T16:13:20.749Z,1.03
2018-06-13T16:15:25.710Z,1.03
2018-06-13T16:17:30.958Z,1.43
2018-06-13T16:19:36.150Z,0.93
2018-06-13T16:21:41.316Z,1.50
2018-06-13T16:23:46.201Z,1.83
2018-06-13T16:25:51.178Z,1.50
2018-06-13T16:27:56.023Z,0.93
2018-06-13T16:30:01.036Z,1.37
2018-06-13T16:32:06.064Z,1.33
2018-06-13T16:34:11.040Z,1.30
2018-06-13T16:36:16.314Z,0.93
2018-06-13T16:38:21.522Z,2.60
2018-06-13T16:40:28.297Z,1.20
2018-06-13T16:42:33.298Z,1.53
2018-06-13T16:44:38.058Z,1.17
2018-06-13T16:46:43.141Z,1.20
2018-06-13T16:48:48.266Z,1.20
2018-06-13T16:51:09.609Z,1.80
2018-06-13T16:53:24.739Z,1.43
2018-06-13T16:55:29.737Z,2.43
2018-06-13T16:57:34.684Z,1.60
2018-06-13T16:59:39.805Z,1.73
2018-06-13T17:01:44.750Z,1.30
2018-06-13T17:03:49.797Z,1.70
2018-06-13T17:05:54.861Z,2.03
2018-06-13T17:07:59.733Z,1.60
2018-06-13T17:10:05.002Z,1.50
2018-06-13T17:12:09.871Z,2.07
2018-06-13T17:14:14.758Z,1.50
2018-06-13T17:16:19.648Z,1.90
2018-06-13T17:18:24.733Z,2.20
2018-06-13T17:20:29.828Z,2.07
2018-06-13T17:22:34.835Z,1.70
2018-06-13T17:24:39.966Z,1.70
2018-06-13T17:26:45.414Z,1.80
2018-06-13T17:28:50.700Z,1.67
2018-06-13T17:30:55.972Z,2.20
2018-06-13T17:33:00.633Z,1.50
2018-06-13T17:35:05.798Z,1.90
2018-06-13T17:37:10.948Z,1.80
2018-06-13T17:39:16.000Z,1.87
2018-06-13T17:41:20.993Z,2.30
2018-06-13T17:43:26.115Z,1.63
2018-06-13T17:45:31.299Z,1.60
2018-06-13T17:47:36.279Z,2.23
2018-06-13T17:49:41.393Z,1.53
2018-06-13T17:51:46.468Z,1.50
2018-06-13T17:53:51.512Z,1.43
2018-06-13T17:55:57.007Z,1.40
2018-06-13T17:58:02.462Z,2.40
2018-06-13T18:00:07.649Z,1.50
2018-06-13T18:02:12.635Z,1.13
2018-06-13T18:04:17.734Z,1.90
2018-06-13T18:06:22.875Z,1.60
2018-06-13T18:08:28.053Z,1.50
2018-06-13T18:10:33.208Z,2.00
2018-06-13T18:12:38.430Z,1.67
2018-06-13T18:14:43.762Z,1.87
2018-06-13T18:16:48.928Z,1.50
2018-06-13T18:18:53.798Z,1.93
2018-06-13T18:20:58.749Z,2.10
2018-06-13T18:23:04.153Z,2.33
2018-06-13T18:25:09.515Z,1.80
2018-06-13T18:27:14.749Z,1.93
2018-06-13T18:29:20.095Z,1.80
2018-06-13T18:31:25.003Z,1.90
2018-06-13T18:33:30.050Z,1.83
2018-06-13T18:35:35.161Z,2.23
2018-06-13T18:37:40.456Z,1.97
2018-06-13T18:39:45.459Z,1.90
2018-06-13T18:41:50.973Z,2.03
2018-06-13T18:43:56.115Z,2.23
2018-06-13T18:46:01.772Z,1.97
2018-06-13T18:48:07.120Z,2.00
2018-06-13T18:50:12.414Z,1.90
2018-06-13T18:52:17.560Z,2.40
2018-06-13T18:54:22.571Z,2.00
2018-06-13T18:56:29.906Z,2.50
2018-06-13T18:58:35.097Z,2.43
2018-06-13T19:00:40.107Z,2.53
2018-06-13T19:02:45.230Z,2.57
2018-06-13T19:04:51.253Z,2.60
2018-06-13T19:06:58.764Z,1.50
2018-06-13T19:09:05.113Z,2.27
2018-06-13T19:11:11.112Z,2.60
2018-06-13T19:13:18.262Z,2.00
2018-06-13T19:15:27.380Z,1.80
2018-06-13T19:17:33.327Z,2.10
2018-06-13T19:19:38.648Z,1.97
2018-06-13T19:21:44.299Z,1.70
2018-06-13T19:23:52.314Z,1.57
2018-06-13T19:25:58.654Z,1.77
2018-06-13T19:28:05.267Z,1.40
2018-06-13T19:30:12.855Z,2.00
2018-06-13T19:32:22.653Z,1.53
2018-06-13T19:34:28.626Z,1.50
2018-06-13T19:36:37.563Z,1.50
2018-06-13T19:38:48.395Z,2.40
2018-06-13T19:40:58.290Z,1.73
2018-06-13T19:43:08.019Z,1.30
2018-06-13T19:45:16.818Z,2.00
2018-06-13T19:47:26.815Z,1.50
2018-06-13T19:49:31.697Z,2.37
2018-06-13T19:51:36.920Z,2.07
2018-06-13T19:53:48.119Z,1.70
2018-06-13T19:56:10.453Z,2.00
2018-06-13T19:58:18.916Z,1.73
2018-06-13T20:00:26.440Z,2.07
2018-06-13T20:02:39.714Z,1.87
2018-06-13T20:04:54.007Z,1.97
2018-06-13T20:07:01.304Z,1.90
2018-06-13T20:09:11.087Z,2.00
2018-06-13T20:11:16.801Z,2.30
2018-06-13T20:13:27.547Z,1.63
2018-06-13T20:15:37.502Z,1.90
2018-06-13T20:17:48.061Z,2.27
2018-06-13T20:19:55.159Z,2.33
2018-06-13T20:22:00.943Z,1.57
2018-06-13T20:24:05.807Z,2.23
2018-06-13T20:28:19.244Z,1.87
2018-06-13T20:30:29.169Z,1.97
2018-06-13T20:32:34.145Z,1.67
2018-06-13T20:34:39.195Z,2.50
2018-06-13T20:36:44.426Z,1.70
2018-06-13T20:38:49.604Z,2.20
2018-06-13T20:40:54.670Z,1.97
2018-06-13T20:43:01.350Z,2.90
2018-06-13T20:45:08.865Z,1.90
2018-06-13T20:47:16.821Z,2.63
2018-06-13T20:49:23.002Z,2.17
2018-06-13T20:51:30.007Z,1.70
2018-06-13T20:53:35.564Z,2.00
2018-06-13T20:55:43.530Z,2.00
2018-06-13T20:57:49.341Z,2.00
2018-06-13T20:59:55.406Z,2.07
2018-06-13T21:02:01.477Z,1.70
2018-06-13T21:04:09.812Z,2.73
2018-06-13T21:06:15.032Z,2.17
2018-06-13T21:08:20.510Z,2.10
2018-06-13T21:10:26.127Z,2.00
2018-06-13T21:12:32.437Z,2.33
2018-06-13T21:14:37.583Z,2.23
2018-06-13T21:16:42.994Z,2.53
2018-06-13T21:18:48.400Z,2.07
2018-06-13T21:20:53.751Z,2.07
2018-06-13T21:22:58.985Z,2.17
2018-06-13T21:25:04.101Z,2.40
2018-06-13T21:27:10.263Z,3.07
2018-06-13T21:29:15.365Z,2.30
2018-06-13T21:31:20.793Z,3.07
2018-06-13T21:33:26.117Z,2.90
2018-06-13T21:35:33.840Z,2.43
2018-06-13T21:37:38.924Z,2.40
2018-06-13T21:39:44.051Z,2.43
2018-06-13T21:41:49.107Z,2.50
2018-06-13T21:43:56.648Z,3.03
2018-06-13T21:46:01.723Z,2.30
2018-06-13T21:48:07.054Z,2.60
2018-06-13T21:50:12.147Z,2.70
2018-06-13T21:52:17.419Z,3.87
2018-06-13T21:54:24.688Z,2.97
2018-06-13T21:56:31.950Z,2.70
2018-06-13T21:58:41.048Z,3.10
2018-06-13T22:00:46.249Z,3.57
2018-06-13T22:02:51.412Z,3.10
2018-06-13T22:04:56.794Z,2.83
2018-06-13T22:07:01.845Z,3.00
2018-06-13T22:09:09.926Z,2.70
2018-06-13T22:11:15.058Z,2.87
2018-06-13T22:13:20.121Z,3.10
2018-06-13T22:15:26.994Z,3.60
2018-06-13T22:17:32.081Z,3.60
2018-06-13T22:19:37.098Z,3.10
2018-06-13T22:21:42.317Z,3.83
2018-06-13T22:23:47.362Z,4.70
2018-06-13T22:25:52.522Z,4.33
2018-06-13T22:27:57.628Z,4.20
2018-06-13T22:30:02.750Z,4.60
2018-06-13T22:32:07.827Z,4.20
2018-06-13T22:34:12.850Z,4.20
2018-06-13T22:36:17.908Z,4.10
2018-06-13T22:38:22.970Z,4.20
2018-06-13T22:40:27.948Z,4.10
2018-06-13T22:42:32.962Z,4.80
2018-06-13T22:44:37.911Z,5.50
2018-06-13T22:46:42.738Z,4.73
2018-06-13T22:48:47.590Z,4.23
2018-06-13T22:50:52.621Z,3.47
2018-06-13T22:52:57.847Z,4.37
2018-06-13T22:55:02.944Z,3.90
2018-06-13T22:57:07.956Z,3.73
2018-06-13T22:59:13.007Z,3.80
2018-06-13T23:01:18.077Z,3.80
2018-06-13T23:03:22.973Z,3.70
2018-06-13T23:05:27.938Z,3.93
2018-06-13T23:07:33.076Z,3.40
2018-06-13T23:09:38.099Z,4.13
2018-06-13T23:11:43.151Z,3.33
2018-06-13T23:13:48.270Z,3.30
2018-06-13T23:15:53.382Z,3.53
2018-06-13T23:17:58.479Z,3.53
2018-06-13T23:20:05.360Z,3.50
2018-06-13T23:22:10.433Z,2.80
2018-06-13T23:24:15.351Z,3.10
2018-06-13T23:26:22.220Z,2.90
2018-06-13T23:28:27.909Z,2.60
2018-06-13T23:30:33.644Z,3.20
2018-06-13T23:32:38.536Z,2.80
2018-06-13T23:34:43.447Z,2.73
2018-06-13T23:36:48.254Z,3.03
2018-06-13T23:38:53.082Z,3.60
2018-06-13T23:40:57.979Z,2.80
2018-06-13T23:43:02.742Z,2.57
2018-06-13T23:45:07.442Z,2.73
2018-06-13T23:47:12.423Z,3.90
2018-06-13T23:49:17.214Z,3.50
2018-06-13T23:51:22.109Z,3.00
2018-06-13T23:53:26.998Z,2.03
2018-06-13T23:55:32.135Z,3.23
2018-06-13T23:57:37.124Z,3.23
2018-06-13T23:59:42.043Z,2.80
